Hovedside
METAR-TAF:

METAR-TAF

Lufthavner :

Burns, Oregon, USA

breddegrad: 43-35-42N, lengdegrad: 118-57-23W, høyde over havet: 1263 m

Gjeldene værobservasjon

Denne rapporten ble laget for 1 time og 6 minutter siden, klokken 18:53 UTC
Vind 4 kt fra skiftende retning
Temperatur 23°C
Luftfuktighet 38%
Trykk 1024 hPa
Sikt: 16.1 km
Skyfri himmel

METAR: KBNO 021853Z AUTO VRB04KT 10SM CLR 23/08 A3023 RMK AO2 SLP212 T02280078

Tid: 12:59 (19:59 UTC)

Varsel

Denne rapporten ble laget for 2 timer og 39 minutter siden, klokken 17:20 UTC
Varsel gyldig fra 02. klokken 18 UTC til 03. klokken 18 UTC
Vind 3 kt fra skiftende retning
Sikt: 10 km
Spredte skyer i en høyde av 20000 ft

TAF: KBNO 021720Z 0218/0318 VRB03KT P6SM SCT200

Værobservasjoner og værvarsel for over 4000 flyplasser (METAR- og TAF-rapporter).

Tilgjengelige stasjoner er representert av de røde og gule prikkene på kartet.

Hold musepekeren over prikken for å se navnet på stasjonen.

Klikk så for å se værobservasjoner og -varsler.

For å forandre kartet kan du klikke på den grønne knappen med svart kryss for å zoome inn, på den grønne knappen med strek for å zoome ut, eller på de grønne pilene for å se tilstøtende kart.


METAR-TAF: